createdAt,value
2023-02-24T00:00:33.964Z,7.70
2023-02-24T00:03:06.587Z,7.70
2023-02-24T00:05:36.961Z,7.70
2023-02-24T00:08:05.329Z,7.70
2023-02-24T00:10:34.213Z,7.70
2023-02-24T00:13:02.695Z,7.70
2023-02-24T00:15:31.082Z,7.70
2023-02-24T00:17:59.495Z,7.70
2023-02-24T00:20:33.564Z,7.70
2023-02-24T00:23:01.967Z,7.70
2023-02-24T00:25:30.295Z,7.70
2023-02-24T00:28:01.859Z,7.70
2023-02-24T00:30:33.183Z,7.70
2023-02-24T00:33:03.986Z,7.70
2023-02-24T00:35:35.050Z,7.70
2023-02-24T00:38:03.483Z,7.60
2023-02-24T00:40:37.330Z,7.70
2023-02-24T00:43:08.129Z,7.70
2023-02-24T00:45:39.369Z,7.60
2023-02-24T00:48:10.805Z,7.70
2023-02-24T00:50:40.537Z,7.60
2023-02-24T00:53:10.621Z,7.60
2023-02-24T00:55:39.042Z,7.60
2023-02-24T00:58:07.536Z,7.60
2023-02-24T01:00:37.656Z,7.60
2023-02-24T01:03:07.382Z,7.60
2023-02-24T01:05:38.441Z,7.60
2023-02-24T01:08:08.118Z,7.60
2023-02-24T01:10:36.562Z,7.60
2023-02-24T01:13:04.021Z,7.70
2023-02-24T01:15:32.699Z,7.70
2023-02-24T01:18:01.092Z,7.60
2023-02-24T01:20:30.566Z,7.70
2023-02-24T01:22:58.912Z,7.70
2023-02-24T01:25:31.509Z,7.70
2023-02-24T01:27:59.953Z,7.70
2023-02-24T01:30:29.042Z,7.70
2023-02-24T01:32:59.854Z,7.80
2023-02-24T01:35:34.991Z,7.80
2023-02-24T01:38:04.895Z,7.80
2023-02-24T01:40:35.295Z,7.80
2023-02-24T01:43:08.699Z,7.80
2023-02-24T01:45:40.101Z,7.80
2023-02-24T01:48:11.107Z,7.80
2023-02-24T01:50:41.776Z,7.70
2023-02-24T01:53:11.595Z,7.80
2023-02-24T01:55:49.324Z,7.70
2023-02-24T01:58:23.967Z,7.70
2023-02-24T02:00:52.625Z,7.70
2023-02-24T02:03:27.832Z,7.70
2023-02-24T02:06:01.840Z,7.70
2023-02-24T02:08:31.551Z,7.70
2023-02-24T02:11:06.316Z,7.60
2023-02-24T02:13:38.123Z,7.60
2023-02-24T02:16:31.456Z,7.60
2023-02-24T02:19:16.154Z,7.60
2023-02-24T02:22:06.949Z,7.60
2023-02-24T02:24:48.736Z,7.60
2023-02-24T02:27:49.499Z,7.60
2023-02-24T02:30:50.188Z,7.60
2023-02-24T02:33:44.247Z,7.60
2023-02-24T02:36:23.548Z,7.50
2023-02-24T02:38:59.876Z,7.50
2023-02-24T02:41:32.475Z,7.50
2023-02-24T02:44:08.645Z,7.50
2023-02-24T02:46:44.016Z,7.40
2023-02-24T02:49:18.708Z,7.40
2023-02-24T02:51:53.909Z,7.40
2023-02-24T02:54:29.734Z,7.40
2023-02-24T02:57:03.527Z,7.40
2023-02-24T02:59:35.452Z,7.40
2023-02-24T03:02:15.235Z,7.40
2023-02-24T03:04:51.377Z,7.40
2023-02-24T03:07:24.141Z,7.40
2023-02-24T03:09:56.347Z,7.40
2023-02-24T03:12:27.411Z,7.40
2023-02-24T03:15:00.252Z,7.40
2023-02-24T03:17:34.439Z,7.40
2023-02-24T03:20:15.075Z,7.40
2023-02-24T03:22:50.016Z,7.40
2023-02-24T03:25:24.373Z,7.40
2023-02-24T03:27:58.412Z,7.40
2023-02-24T03:30:31.180Z,7.50
2023-02-24T03:33:08.850Z,7.50
2023-02-24T03:35:42.098Z,7.50
2023-02-24T03:38:14.238Z,7.50
2023-02-24T03:40:43.569Z,7.50
2023-02-24T03:43:22.261Z,7.50
2023-02-24T03:45:51.511Z,7.50
2023-02-24T03:48:21.176Z,7.50
2023-02-24T03:50:49.758Z,7.50
2023-02-24T03:53:44.621Z,7.50
2023-02-24T03:56:27.027Z,7.50
2023-02-24T03:59:07.854Z,7.50
2023-02-24T04:01:48.718Z,7.50
2023-02-24T04:04:22.572Z,7.50
2023-02-24T04:07:07.134Z,7.50
2023-02-24T04:09:41.982Z,7.50
2023-02-24T04:12:21.004Z,7.50
2023-02-24T04:14:58.153Z,7.50
2023-02-24T04:17:31.395Z,7.50
2023-02-24T04:20:09.252Z,7.50
2023-02-24T04:22:42.263Z,7.50
2023-02-24T04:25:15.828Z,7.50
2023-02-24T04:27:45.332Z,7.50
2023-02-24T04:30:19.941Z,7.50
2023-02-24T04:32:48.481Z,7.50
2023-02-24T04:35:21.242Z,7.50
2023-02-24T04:37:51.945Z,7.50
2023-02-24T04:40:23.235Z,7.50
2023-02-24T04:42:52.893Z,7.50
2023-02-24T04:45:23.415Z,7.50
2023-02-24T04:47:56.378Z,7.50
2023-02-24T04:50:26.881Z,7.50
2023-02-24T04:52:56.926Z,7.50
2023-02-24T04:55:29.646Z,7.50
2023-02-24T04:57:59.061Z,7.50
2023-02-24T05:00:33.682Z,7.50
2023-02-24T05:03:03.402Z,7.50
2023-02-24T05:05:33.566Z,7.50
2023-02-24T05:08:04.865Z,7.50
2023-02-24T05:10:40.526Z,7.50
2023-02-24T05:13:10.957Z,7.40
2023-02-24T05:15:42.130Z,7.40
2023-02-24T05:18:14.360Z,7.40
2023-02-24T05:21:02.054Z,7.40
2023-02-24T05:23:34.678Z,7.40
2023-02-24T05:26:09.125Z,7.40
2023-02-24T05:28:38.387Z,7.40
2023-02-24T05:31:09.073Z,7.40
2023-02-24T05:33:38.876Z,7.40
2023-02-24T05:36:10.008Z,7.40
2023-02-24T05:38:39.075Z,7.40
2023-02-24T05:41:15.173Z,7.40
2023-02-24T05:43:48.160Z,7.40
2023-02-24T05:46:17.139Z,7.40
2023-02-24T05:48:47.186Z,7.30
2023-02-24T05:51:15.610Z,7.30
2023-02-24T05:53:44.257Z,7.20
2023-02-24T05:56:14.023Z,7.10
2023-02-24T05:58:45.219Z,7.10
2023-02-24T06:01:19.380Z,7.00
2023-02-24T06:03:48.695Z,7.00
2023-02-24T06:06:17.717Z,7.00
2023-02-24T06:08:50.663Z,6.90
2023-02-24T06:11:21.606Z,6.90
2023-02-24T06:13:50.416Z,6.80
2023-02-24T06:16:20.092Z,6.80
2023-02-24T06:18:51.081Z,6.80
2023-02-24T06:21:20.642Z,6.80
2023-02-24T06:23:49.330Z,6.80
2023-02-24T06:26:19.703Z,6.80
2023-02-24T06:28:50.071Z,6.80
2023-02-24T06:31:18.737Z,6.80
2023-02-24T06:33:47.273Z,6.80
2023-02-24T06:36:16.220Z,6.80
2023-02-24T06:38:44.666Z,6.80
2023-02-24T06:41:13.457Z,6.80
2023-02-24T06:43:44.684Z,6.90
2023-02-24T06:46:16.696Z,6.90
2023-02-24T06:48:45.200Z,6.90
2023-02-24T06:51:15.811Z,6.90
2023-02-24T06:53:44.868Z,7.00
2023-02-24T06:56:16.068Z,7.00
2023-02-24T06:58:46.118Z,7.00
2023-02-24T07:01:17.629Z,7.10
2023-02-24T07:04:03.487Z,7.10
2023-02-24T07:06:34.513Z,7.10
2023-02-24T07:09:07.356Z,7.20
2023-02-24T07:11:37.193Z,7.20
2023-02-24T07:14:06.642Z,7.20
2023-02-24T07:16:37.004Z,7.30
2023-02-24T07:19:11.373Z,7.30
2023-02-24T07:21:43.506Z,7.40
2023-02-24T07:24:14.410Z,7.40
2023-02-24T07:26:43.852Z,7.50
2023-02-24T07:29:13.203Z,7.60
2023-02-24T07:31:43.230Z,7.70
2023-02-24T07:34:15.191Z,7.70
2023-02-24T07:36:50.434Z,7.80
2023-02-24T07:39:20.268Z,7.90
2023-02-24T07:41:49.749Z,8.00
2023-02-24T07:44:19.861Z,8.20
2023-02-24T07:46:50.139Z,8.30
2023-02-24T07:49:20.970Z,8.40
2023-02-24T07:51:53.018Z,8.50
2023-02-24T07:54:23.355Z,8.70
2023-02-24T07:56:59.346Z,8.90
2023-02-24T07:59:30.592Z,9.10
2023-02-24T08:02:04.948Z,9.50
2023-02-24T08:04:36.649Z,9.90
2023-02-24T08:07:11.014Z,10.40
2023-02-24T08:10:08.372Z,10.80
2023-02-24T08:12:37.060Z,11.10
2023-02-24T08:15:17.456Z,11.20
2023-02-24T08:17:47.868Z,11.20
2023-02-24T08:20:23.050Z,11.20
2023-02-24T08:22:53.303Z,11.30
2023-02-24T08:25:23.679Z,11.30
2023-02-24T08:28:07.449Z,11.30
2023-02-24T08:30:40.183Z,11.30
2023-02-24T08:33:12.016Z,11.30
2023-02-24T08:35:45.263Z,11.20
2023-02-24T08:38:18.001Z,11.10
2023-02-24T08:40:51.792Z,11.00
2023-02-24T08:43:36.210Z,10.90
2023-02-24T08:46:18.708Z,10.80
2023-02-24T08:48:50.556Z,10.60
2023-02-24T08:51:23.562Z,10.50
2023-02-24T08:53:54.252Z,10.40
2023-02-24T08:56:25.295Z,10.20
2023-02-24T08:58:58.930Z,10.10
2023-02-24T09:01:34.972Z,10.00
2023-02-24T09:04:07.946Z,9.90
2023-02-24T09:06:40.537Z,9.80
2023-02-24T09:09:18.768Z,9.80
2023-02-24T09:11:49.451Z,9.80
2023-02-24T09:14:27.046Z,9.80
2023-02-24T09:17:03.449Z,9.90
2023-02-24T09:19:55.634Z,10.00
2023-02-24T09:22:57.483Z,10.10
2023-02-24T09:25:41.087Z,10.30
2023-02-24T09:28:17.414Z,10.50
2023-02-24T09:30:54.542Z,10.90
2023-02-24T09:33:26.090Z,11.20
2023-02-24T09:36:10.079Z,11.50
2023-02-24T09:38:57.739Z,11.90
2023-02-24T09:41:45.336Z,12.20
2023-02-24T09:44:19.218Z,12.50
2023-02-24T09:46:54.947Z,12.80
2023-02-24T09:49:39.864Z,13.10
2023-02-24T09:52:17.875Z,13.40
2023-02-24T09:55:06.098Z,13.60
2023-02-24T09:58:04.744Z,13.90
2023-02-24T10:00:44.172Z,14.20
2023-02-24T10:03:41.668Z,14.70
2023-02-24T10:06:21.589Z,15.30
2023-02-24T10:08:57.009Z,16.10
2023-02-24T10:11:34.018Z,16.70
2023-02-24T10:14:06.933Z,17.40
2023-02-24T10:16:46.387Z,18.10
2023-02-24T10:19:26.637Z,18.70
2023-02-24T10:22:03.476Z,19.10
2023-02-24T10:24:38.444Z,19.50
2023-02-24T10:27:17.428Z,19.80
2023-02-24T10:30:04.051Z,20.10
2023-02-24T10:32:43.410Z,20.40
2023-02-24T10:35:17.735Z,20.70
2023-02-24T10:37:46.448Z,21.00
2023-02-24T10:40:26.679Z,21.10
2023-02-24T10:43:10.584Z,21.10
2023-02-24T10:45:45.312Z,21.00
2023-02-24T10:48:42.037Z,20.70
2023-02-24T10:51:20.602Z,20.30
2023-02-24T10:54:10.314Z,19.90
2023-02-24T10:56:44.952Z,19.60
2023-02-24T10:59:41.444Z,19.30
2023-02-24T11:02:29.807Z,19.00
2023-02-24T11:05:27.075Z,18.70
2023-02-24T11:08:09.769Z,18.50
2023-02-24T11:10:53.463Z,18.40
2023-02-24T11:13:40.636Z,18.40
2023-02-24T11:16:28.397Z,18.50
2023-02-24T11:18:58.337Z,18.60
2023-02-24T11:21:28.946Z,18.60
2023-02-24T11:24:03.071Z,18.70
2023-02-24T11:26:37.356Z,18.70
2023-02-24T11:29:21.313Z,18.70
2023-02-24T11:32:02.084Z,18.60
2023-02-24T11:34:38.388Z,18.40
2023-02-24T11:37:22.782Z,18.30
2023-02-24T11:39:56.439Z,18.20
2023-02-24T11:42:28.235Z,18.10
2023-02-24T11:45:06.494Z,17.90
2023-02-24T11:47:42.446Z,17.90
2023-02-24T11:50:44.032Z,17.70
2023-02-24T11:53:29.319Z,17.60
2023-02-24T11:56:04.832Z,17.50
2023-02-24T11:58:45.427Z,17.40
2023-02-24T12:01:24.538Z,17.30
2023-02-24T12:03:59.840Z,17.10
2023-02-24T12:06:33.039Z,16.90
2023-02-24T12:09:09.479Z,16.60
2023-02-24T12:11:46.349Z,16.40
2023-02-24T12:14:24.358Z,16.20
2023-02-24T12:17:03.351Z,16.00
2023-02-24T12:19:39.429Z,15.90
2023-02-24T12:22:15.273Z,15.80
2023-02-24T12:24:49.916Z,15.70
2023-02-24T12:27:39.437Z,15.70
2023-02-24T12:30:34.454Z,15.60
2023-02-24T12:33:20.508Z,15.50
2023-02-24T12:35:57.735Z,15.40
2023-02-24T12:38:41.366Z,15.30
2023-02-24T12:41:25.821Z,15.20
2023-02-24T12:44:00.324Z,15.20
2023-02-24T12:46:34.619Z,15.20
2023-02-24T12:49:21.153Z,15.30
2023-02-24T12:51:58.742Z,15.40
2023-02-24T12:54:32.831Z,15.60
2023-02-24T12:57:08.556Z,16.10
2023-02-24T12:59:40.522Z,16.50
2023-02-24T13:02:16.988Z,16.70
2023-02-24T13:04:57.873Z,17.00
2023-02-24T13:07:54.093Z,17.30
2023-02-24T13:10:35.157Z,17.60
2023-02-24T13:13:12.007Z,17.80
2023-02-24T13:15:51.555Z,17.80
2023-02-24T13:18:31.750Z,17.80
2023-02-24T13:21:10.492Z,17.70
2023-02-24T13:23:43.330Z,17.70
2023-02-24T13:26:11.765Z,17.80
2023-02-24T13:28:40.338Z,17.90
2023-02-24T13:31:11.402Z,18.00
2023-02-24T13:33:42.166Z,18.10
2023-02-24T13:36:20.605Z,18.00
2023-02-24T13:38:50.935Z,17.90
2023-02-24T13:41:40.951Z,17.70
2023-02-24T13:44:26.495Z,17.40
2023-02-24T13:47:27.041Z,17.00
2023-02-24T13:50:19.709Z,16.70
2023-02-24T13:53:07.737Z,16.30
2023-02-24T13:55:50.186Z,16.00
2023-02-24T13:58:39.422Z,15.70
2023-02-24T14:01:10.802Z,15.40
2023-02-24T14:03:41.278Z,15.10
2023-02-24T14:06:19.333Z,14.90
2023-02-24T14:08:54.324Z,14.70
2023-02-24T14:11:27.038Z,14.50
2023-02-24T14:13:58.435Z,14.30
2023-02-24T14:16:30.546Z,14.10
2023-02-24T14:19:01.866Z,14.00
2023-02-24T14:21:31.980Z,13.90
2023-02-24T14:24:05.259Z,13.70
2023-02-24T14:26:44.616Z,13.70
2023-02-24T14:29:16.641Z,13.60
2023-02-24T14:31:49.764Z,13.50
2023-02-24T14:34:21.876Z,13.50
2023-02-24T14:36:53.159Z,13.50
2023-02-24T14:39:25.667Z,13.50
2023-02-24T14:42:11.569Z,13.50
2023-02-24T14:44:43.449Z,13.50
2023-02-24T14:47:14.474Z,13.50
2023-02-24T14:49:43.469Z,13.50
2023-02-24T14:52:17.403Z,13.40
2023-02-24T14:54:50.528Z,13.50
2023-02-24T14:57:23.738Z,13.50
2023-02-24T14:59:55.907Z,13.50
2023-02-24T15:02:32.369Z,13.50
2023-02-24T15:05:01.397Z,13.50
2023-02-24T15:07:34.897Z,13.50
2023-02-24T15:10:06.634Z,13.50
2023-02-24T15:12:38.038Z,13.40
2023-02-24T15:15:10.001Z,13.40
2023-02-24T15:17:41.255Z,13.30
2023-02-24T15:20:29.022Z,13.20
2023-02-24T15:22:57.856Z,13.10
2023-02-24T15:25:41.899Z,13.10
2023-02-24T15:28:25.583Z,13.00
2023-02-24T15:31:02.404Z,12.90
2023-02-24T15:33:38.142Z,12.80
2023-02-24T15:36:17.364Z,12.70
2023-02-24T15:38:46.417Z,12.60
2023-02-24T15:41:16.214Z,12.50
2023-02-24T15:43:50.513Z,12.40
2023-02-24T15:46:25.787Z,12.30
2023-02-24T15:48:57.692Z,12.20
2023-02-24T15:51:33.504Z,12.10
2023-02-24T15:54:03.021Z,12.10
2023-02-24T15:56:34.909Z,12.00
2023-02-24T15:59:03.706Z,11.90
2023-02-24T16:01:32.728Z,11.90
2023-02-24T16:04:01.730Z,11.80
2023-02-24T16:06:30.422Z,11.80
2023-02-24T16:09:00.162Z,11.80
2023-02-24T16:11:30.925Z,11.70
2023-02-24T16:14:01.798Z,11.70
2023-02-24T16:16:33.379Z,11.70
2023-02-24T16:19:01.850Z,11.60
2023-02-24T16:21:30.281Z,11.60
2023-02-24T16:23:58.681Z,11.50
2023-02-24T16:26:27.186Z,11.50
2023-02-24T16:28:58.077Z,11.40
2023-02-24T16:31:28.570Z,11.40
2023-02-24T16:33:58.578Z,11.30
2023-02-24T16:36:28.472Z,11.20
2023-02-24T16:38:57.384Z,11.20
2023-02-24T16:41:25.958Z,11.10
2023-02-24T16:43:54.387Z,11.00
2023-02-24T16:46:24.139Z,10.90
2023-02-24T16:48:54.972Z,10.80
2023-02-24T16:51:23.682Z,10.80
2023-02-24T16:53:52.192Z,10.70
2023-02-24T16:56:21.032Z,10.60
2023-02-24T16:58:50.715Z,10.50
2023-02-24T17:01:22.527Z,10.50
2023-02-24T17:03:54.989Z,10.40
2023-02-24T17:06:25.199Z,10.40
2023-02-24T17:08:54.089Z,10.30
2023-02-24T17:11:24.375Z,10.30
2023-02-24T17:13:52.659Z,10.20
2023-02-24T17:16:21.490Z,10.20
2023-02-24T17:18:50.400Z,10.20
2023-02-24T17:21:20.370Z,10.20
2023-02-24T17:23:48.855Z,10.20
2023-02-24T17:26:17.524Z,10.20
2023-02-24T17:28:45.898Z,10.10
2023-02-24T17:31:14.405Z,10.10
2023-02-24T17:33:42.963Z,10.10
2023-02-24T17:36:11.361Z,10.10
2023-02-24T17:38:41.080Z,10.10
2023-02-24T17:41:09.962Z,10.10
2023-02-24T17:43:38.336Z,10.10
2023-02-24T17:46:07.496Z,10.10
2023-02-24T17:48:36.375Z,10.10
2023-02-24T17:51:04.972Z,10.10
2023-02-24T17:53:33.399Z,10.00
2023-02-24T17:56:07.869Z,10.00
2023-02-24T17:58:36.638Z,10.00
2023-02-24T18:01:06.295Z,9.90
2023-02-24T18:03:35.996Z,9.90
2023-02-24T18:06:07.806Z,9.90
2023-02-24T18:08:37.640Z,9.90
2023-02-24T18:11:09.972Z,9.80
2023-02-24T18:13:38.285Z,9.80
2023-02-24T18:16:10.866Z,9.80
2023-02-24T18:18:39.654Z,9.70
2023-02-24T18:21:09.556Z,9.70
2023-02-24T18:23:40.677Z,9.70
2023-02-24T18:26:12.551Z,9.70
2023-02-24T18:28:41.060Z,9.60
2023-02-24T18:31:14.077Z,9.60
2023-02-24T18:33:42.807Z,9.60
2023-02-24T18:36:12.107Z,9.60
2023-02-24T18:38:40.613Z,9.60
2023-02-24T18:41:12.618Z,9.60
2023-02-24T18:43:41.112Z,9.60
2023-02-24T18:46:13.352Z,9.60
2023-02-24T18:48:44.551Z,9.50
2023-02-24T18:51:13.295Z,9.50
2023-02-24T18:53:41.814Z,9.50
2023-02-24T18:56:13.748Z,9.50
2023-02-24T18:58:42.459Z,9.50
2023-02-24T19:01:15.491Z,9.50
2023-02-24T19:03:44.066Z,9.50
2023-02-24T19:06:13.157Z,9.50
2023-02-24T19:08:42.323Z,9.40
2023-02-24T19:11:15.021Z,9.40
2023-02-24T19:13:43.622Z,9.40
2023-02-24T19:16:12.832Z,9.40
2023-02-24T19:18:41.426Z,9.40
2023-02-24T19:21:10.976Z,9.40
2023-02-24T19:23:39.478Z,9.40
2023-02-24T19:26:15.618Z,9.40
2023-02-24T19:28:45.417Z,9.30
2023-02-24T19:31:15.776Z,9.30
2023-02-24T19:33:44.371Z,9.30
2023-02-24T19:36:13.363Z,9.30
2023-02-24T19:38:43.376Z,9.20
2023-02-24T19:41:11.843Z,9.20
2023-02-24T19:43:42.115Z,9.20
2023-02-24T19:46:15.084Z,9.20
2023-02-24T19:48:43.803Z,9.20
2023-02-24T19:51:15.603Z,9.20
2023-02-24T19:53:44.105Z,9.20
2023-02-24T19:56:12.485Z,9.30
2023-02-24T19:58:41.012Z,9.30
2023-02-24T20:01:14.053Z,9.30
2023-02-24T20:03:44.001Z,9.40
2023-02-24T20:06:19.607Z,9.50
2023-02-24T20:08:48.415Z,9.50
2023-02-24T20:11:18.323Z,9.50
2023-02-24T20:13:47.215Z,9.60
2023-02-24T20:16:19.218Z,9.60
2023-02-24T20:18:47.868Z,9.70
2023-02-24T20:21:16.213Z,9.70
2023-02-24T20:23:44.950Z,9.70
2023-02-24T20:26:16.376Z,9.70
2023-02-24T20:28:45.465Z,9.70
2023-02-24T20:31:19.632Z,9.70
2023-02-24T20:33:49.834Z,9.70
2023-02-24T20:36:21.316Z,9.70
2023-02-24T20:38:50.716Z,9.60
2023-02-24T20:41:20.751Z,9.60
2023-02-24T20:43:49.486Z,9.60
2023-02-24T20:46:24.523Z,9.50
2023-02-24T20:48:56.089Z,9.50
2023-02-24T20:51:26.159Z,9.50
2023-02-24T20:53:58.209Z,9.40
2023-02-24T20:56:28.167Z,9.40
2023-02-24T20:59:01.041Z,9.40
2023-02-24T21:01:32.571Z,9.30
2023-02-24T21:04:01.789Z,9.30
2023-02-24T21:06:31.033Z,9.30
2023-02-24T21:08:59.880Z,9.20
2023-02-24T21:11:30.473Z,9.20
2023-02-24T21:13:59.092Z,9.10
2023-02-24T21:16:28.352Z,9.10
2023-02-24T21:18:59.048Z,9.00
2023-02-24T21:21:27.947Z,9.00
2023-02-24T21:23:56.765Z,8.90
2023-02-24T21:26:27.192Z,8.80
2023-02-24T21:28:57.807Z,8.80
2023-02-24T21:31:27.631Z,8.80
2023-02-24T21:33:57.761Z,8.70
2023-02-24T21:36:28.105Z,8.70
2023-02-24T21:38:57.133Z,8.60
2023-02-24T21:41:25.431Z,8.60
2023-02-24T21:43:55.866Z,8.60
2023-02-24T21:46:28.661Z,8.50
2023-02-24T21:49:00.410Z,8.50
2023-02-24T21:51:30.061Z,8.50
2023-02-24T21:53:59.129Z,8.50
2023-02-24T21:56:29.811Z,8.50
2023-02-24T21:59:00.240Z,8.40
2023-02-24T22:01:32.067Z,8.40
2023-02-24T22:04:04.462Z,8.40
2023-02-24T22:06:34.418Z,8.40
2023-02-24T22:09:04.805Z,8.40
2023-02-24T22:11:35.305Z,8.30
2023-02-24T22:14:03.849Z,8.30
2023-02-24T22:16:32.222Z,8.30
2023-02-24T22:19:02.036Z,8.20
2023-02-24T22:21:31.183Z,8.20
2023-02-24T22:24:01.526Z,8.10
2023-02-24T22:26:31.948Z,8.10
2023-02-24T22:29:01.097Z,8.10
2023-02-24T22:31:31.573Z,8.00
2023-02-24T22:34:02.011Z,8.00
2023-02-24T22:36:33.744Z,8.00
2023-02-24T22:39:03.400Z,7.90
2023-02-24T22:41:34.118Z,7.90
2023-02-24T22:44:04.175Z,7.90
2023-02-24T22:46:34.663Z,7.80
2023-02-24T22:49:05.382Z,7.80
2023-02-24T22:51:33.912Z,7.70
2023-02-24T22:54:02.294Z,7.70
2023-02-24T22:56:32.384Z,7.70
2023-02-24T22:59:01.702Z,7.60
2023-02-24T23:01:32.171Z,7.60
2023-02-24T23:04:01.223Z,7.60
2023-02-24T23:06:32.035Z,7.60
2023-02-24T23:09:01.987Z,7.60
2023-02-24T23:11:32.564Z,7.60
2023-02-24T23:14:03.487Z,7.60
2023-02-24T23:16:33.869Z,7.60
2023-02-24T23:19:06.130Z,7.60
2023-02-24T23:21:38.272Z,7.50
2023-02-24T23:24:08.118Z,7.50
2023-02-24T23:26:40.651Z,7.50
2023-02-24T23:29:10.359Z,7.50
2023-02-24T23:31:39.035Z,7.50
2023-02-24T23:34:07.635Z,7.50
2023-02-24T23:36:39.059Z,7.50
2023-02-24T23:39:09.449Z,7.60
2023-02-24T23:41:39.149Z,7.60
2023-02-24T23:44:08.182Z,7.60
2023-02-24T23:46:38.396Z,7.60
2023-02-24T23:49:07.679Z,7.60
2023-02-24T23:51:48.100Z,7.50
2023-02-24T23:54:18.426Z,7.50
2023-02-24T23:56:47.339Z,7.50
2023-02-24T23:59:16.625Z,7.50
